createdAt,value
2022-10-22T00:01:14.010Z,97902.20
2022-10-22T00:03:42.279Z,97901.34
2022-10-22T00:06:10.486Z,97895.78
2022-10-22T00:08:38.647Z,97891.26
2022-10-22T00:11:15.331Z,97890.73
2022-10-22T00:13:44.283Z,97890.73
2022-10-22T00:16:13.078Z,97888.65
2022-10-22T00:18:41.621Z,97885.35
2022-10-22T00:21:10.128Z,97882.05
2022-10-22T00:23:42.165Z,97879.11
2022-10-22T00:26:11.129Z,97879.30
2022-10-22T00:28:39.380Z,97879.84
2022-10-22T00:31:08.177Z,97882.62
2022-10-22T00:33:36.508Z,97880.89
2022-10-22T00:36:04.900Z,97880.05
2022-10-22T00:38:34.023Z,97876.08
2022-10-22T00:43:53.348Z,97871.42
2022-10-22T00:46:21.386Z,97873.88
2022-10-22T00:48:50.355Z,97877.02
2022-10-22T00:51:21.300Z,97876.52
2022-10-22T00:53:53.817Z,97868.55
2022-10-22T00:56:26.447Z,97867.87
2022-10-22T00:58:58.599Z,97869.27
2022-10-22T01:01:30.911Z,97871.00
2022-10-22T01:04:00.280Z,97870.67
2022-10-22T01:06:34.090Z,97866.34
2022-10-22T01:09:17.353Z,97864.59
2022-10-22T01:11:54.705Z,97868.40
2022-10-22T01:14:35.197Z,97864.40
2022-10-22T01:17:14.177Z,97857.79
2022-10-22T01:20:14.909Z,97856.91
2022-10-22T01:23:01.556Z,97859.49
2022-10-22T01:25:40.080Z,97862.27
2022-10-22T01:28:29.060Z,97857.73
2022-10-22T01:31:00.887Z,97850.95
2022-10-22T01:33:35.910Z,97854.09
2022-10-22T01:36:05.158Z,97852.52
2022-10-22T01:38:34.565Z,97850.44
2022-10-22T01:41:04.605Z,97851.85
2022-10-22T01:43:33.667Z,97847.88
2022-10-22T01:46:05.768Z,97849.27
2022-10-22T01:48:56.122Z,97849.11
2022-10-22T01:51:40.018Z,97844.09
2022-10-22T01:54:36.217Z,97840.29
2022-10-22T01:57:24.653Z,97842.73
2022-10-22T02:00:15.029Z,97849.52
2022-10-22T02:03:04.597Z,97845.89
2022-10-22T02:05:38.849Z,97843.46
2022-10-22T02:08:11.337Z,97846.41
2022-10-22T02:10:43.425Z,97842.77
2022-10-22T02:13:32.440Z,97836.35
2022-10-22T02:16:02.362Z,97835.29
2022-10-22T02:18:38.836Z,97841.89
2022-10-22T02:23:37.393Z,97848.66
2022-10-22T02:26:31.837Z,97846.73
2022-10-22T02:29:09.511Z,97845.68
2022-10-22T02:31:42.236Z,97839.42
2022-10-22T02:34:15.097Z,97834.91
2022-10-22T02:36:48.224Z,97835.42
2022-10-22T02:39:21.146Z,97838.04
2022-10-22T02:41:49.631Z,97838.90
2022-10-22T02:44:21.434Z,97839.08
2022-10-22T02:46:50.523Z,97837.52
2022-10-22T02:49:18.947Z,97833.54
2022-10-22T02:51:47.544Z,97837.02
2022-10-22T02:54:15.809Z,97831.63
2022-10-22T02:56:43.913Z,97831.63
2022-10-22T02:59:12.236Z,97827.48
2022-10-22T03:01:40.746Z,97821.41
2022-10-22T03:04:09.752Z,97822.28
2022-10-22T03:06:39.721Z,97823.50
2022-10-22T03:09:08.492Z,97818.48
2022-10-22T03:11:37.443Z,97813.63
2022-10-22T03:14:05.781Z,97815.70
2022-10-22T03:16:34.267Z,97814.84
2022-10-22T03:19:02.686Z,97817.77
2022-10-22T03:21:51.392Z,97813.60
2022-10-22T03:24:26.636Z,97817.76
2022-10-22T03:26:55.695Z,97816.89
2022-10-22T03:29:27.224Z,97819.30
2022-10-22T03:31:55.692Z,97820.00
2022-10-22T03:34:24.199Z,97830.94
2022-10-22T03:36:53.856Z,97831.80
2022-10-22T03:39:22.180Z,97826.94
2022-10-22T03:41:52.557Z,97828.51
2022-10-22T03:44:23.910Z,97825.73
2022-10-22T03:46:52.735Z,97826.09
2022-10-22T03:49:22.205Z,97828.35
2022-10-22T03:51:50.468Z,97836.70
2022-10-22T03:54:18.741Z,97831.51
2022-10-22T03:56:47.030Z,97837.59
2022-10-22T03:59:15.615Z,97833.41
2022-10-22T04:01:43.661Z,97839.49
2022-10-22T04:04:11.711Z,97828.55
2022-10-22T04:06:40.066Z,97833.93
2022-10-22T04:09:08.681Z,97838.97
2022-10-22T04:11:36.998Z,97828.39
2022-10-22T04:14:05.273Z,97839.14
2022-10-22T04:16:33.744Z,97836.54
2022-10-22T04:19:01.911Z,97826.48
2022-10-22T04:21:30.259Z,97836.02
2022-10-22T04:23:58.819Z,97838.43
2022-10-22T04:26:27.810Z,97823.67
2022-10-22T04:28:56.494Z,97831.66
2022-10-22T04:31:26.134Z,97825.58
2022-10-22T04:33:56.140Z,97827.85
2022-10-22T04:36:25.777Z,97828.02
2022-10-22T04:38:57.281Z,97826.80
2022-10-22T04:41:31.123Z,97828.70
2022-10-22T04:43:59.666Z,97829.06
2022-10-22T04:46:30.146Z,97831.30
2022-10-22T04:48:59.051Z,97833.22
2022-10-22T04:51:28.063Z,97836.69
2022-10-22T04:53:56.386Z,97838.25
2022-10-22T04:56:28.096Z,97835.98
2022-10-22T04:59:01.660Z,97835.83
2022-10-22T05:01:40.017Z,97835.83
2022-10-22T05:04:14.978Z,97839.30
2022-10-22T05:06:44.133Z,97838.42
2022-10-22T05:09:18.553Z,97839.12
2022-10-22T05:11:50.354Z,97843.80
2022-10-22T05:14:22.386Z,97846.23
2022-10-22T05:16:52.564Z,97845.72
2022-10-22T05:19:24.731Z,97847.45
2022-10-22T05:21:55.069Z,97846.23
2022-10-22T05:24:24.507Z,97843.64
2022-10-22T05:26:54.535Z,97842.77
2022-10-22T05:29:24.028Z,97847.98
2022-10-22T05:31:53.531Z,97852.14
2022-10-22T05:34:22.076Z,97856.29
2022-10-22T05:36:51.014Z,97855.60
2022-10-22T05:39:19.650Z,97861.34
2022-10-22T05:41:47.865Z,97862.74
2022-10-22T05:44:16.156Z,97860.30
2022-10-22T05:46:44.456Z,97867.23
2022-10-22T05:49:15.512Z,97868.23
2022-10-22T05:51:43.861Z,97869.77
2022-10-22T05:54:17.655Z,97869.58
2022-10-22T05:56:46.578Z,97866.95
2022-10-22T05:59:14.827Z,97865.89
2022-10-22T06:01:43.022Z,97867.41
2022-10-22T06:04:13.363Z,97872.73
2022-10-22T06:06:50.639Z,97871.23
2022-10-22T06:09:32.529Z,97869.42
2022-10-22T06:12:01.843Z,97869.84
2022-10-22T06:14:32.911Z,97868.26
2022-10-22T06:17:01.229Z,97873.15
2022-10-22T06:19:31.532Z,97872.61
2022-10-22T06:21:59.873Z,97872.94
2022-10-22T06:24:28.026Z,97865.75
2022-10-22T06:26:56.060Z,97864.88
2022-10-22T06:29:24.377Z,97863.20
2022-10-22T06:31:52.363Z,97855.60
2022-10-22T06:34:20.771Z,97850.40
2022-10-22T06:36:49.181Z,97841.45
2022-10-22T06:39:17.886Z,97835.52
2022-10-22T06:41:47.162Z,97831.63
2022-10-22T06:44:20.394Z,97827.48
2022-10-22T06:46:52.484Z,97826.01
2022-10-22T06:49:21.913Z,97820.15
2022-10-22T06:51:52.408Z,97819.11
2022-10-22T06:54:23.089Z,97819.39
2022-10-22T06:56:51.724Z,97820.97
2022-10-22T06:59:20.177Z,97824.65
2022-10-22T07:01:48.402Z,97829.52
2022-10-22T07:04:17.008Z,97830.78
2022-10-22T07:06:45.269Z,97831.58
2022-10-22T07:09:13.405Z,97828.98
2022-10-22T07:11:45.261Z,97824.73
2022-10-22T07:14:14.893Z,97828.80
2022-10-22T07:16:43.609Z,97830.45
2022-10-22T07:19:13.217Z,97832.61
2022-10-22T07:21:41.560Z,97830.35
2022-10-22T07:24:09.548Z,97832.84
2022-10-22T07:26:37.707Z,97832.71
2022-10-22T07:29:06.601Z,97832.08
2022-10-22T07:31:34.962Z,97829.52
2022-10-22T07:34:03.320Z,97831.55
2022-10-22T07:36:32.056Z,97833.51
2022-10-22T07:39:01.775Z,97829.24
2022-10-22T07:41:30.837Z,97831.58
2022-10-22T07:43:59.856Z,97833.02
2022-10-22T07:46:28.350Z,97830.85
2022-10-22T07:48:56.632Z,97826.69
2022-10-22T07:51:26.310Z,97830.01
2022-10-22T07:53:54.736Z,97832.35
2022-10-22T07:56:23.280Z,97828.86
2022-10-22T07:58:51.351Z,97834.13
2022-10-22T08:01:20.885Z,97837.05
2022-10-22T08:03:49.493Z,97838.96
2022-10-22T08:06:17.925Z,97836.46
2022-10-22T08:08:46.787Z,97836.91
2022-10-22T08:11:15.289Z,97839.06
2022-10-22T08:13:45.686Z,97840.45
2022-10-22T08:16:15.075Z,97842.44
2022-10-22T08:18:43.086Z,97840.92
2022-10-22T08:21:14.408Z,97839.70
2022-10-22T08:23:42.311Z,97841.46
2022-10-22T08:26:11.547Z,97841.71
2022-10-22T08:28:39.651Z,97843.04
2022-10-22T08:31:08.429Z,97841.35
2022-10-22T08:33:39.028Z,97833.80
2022-10-22T08:36:07.955Z,97835.88
2022-10-22T08:38:36.549Z,97835.92
2022-10-22T08:41:17.780Z,97830.62
2022-10-22T08:43:48.867Z,97839.48
2022-10-22T08:46:43.329Z,97842.92
2022-10-22T08:49:23.145Z,97839.41
2022-10-22T08:51:52.129Z,97841.05
2022-10-22T08:54:29.287Z,97843.60
2022-10-22T08:57:03.811Z,97841.00
2022-10-22T08:59:43.533Z,97845.27
2022-10-22T09:02:38.951Z,97846.39
2022-10-22T09:05:26.148Z,97848.79
2022-10-22T09:07:56.037Z,97850.61
2022-10-22T09:10:33.464Z,97851.80
2022-10-22T09:13:02.141Z,97851.17
2022-10-22T09:15:31.765Z,97849.14
2022-10-22T09:18:00.050Z,97850.24
2022-10-22T09:20:32.851Z,97854.54
2022-10-22T09:23:19.974Z,97855.95
2022-10-22T09:25:51.487Z,97849.08
2022-10-22T09:28:20.434Z,97841.75
2022-10-22T09:30:48.983Z,97842.53
2022-10-22T09:33:24.734Z,97848.11
2022-10-22T09:36:03.821Z,97844.92
2022-10-22T09:38:45.315Z,97844.49
2022-10-22T09:41:15.030Z,97839.55
2022-10-22T09:43:43.468Z,97840.92
2022-10-22T09:46:19.163Z,97842.20
2022-10-22T09:48:58.192Z,97839.58
2022-10-22T09:51:40.643Z,97835.78
2022-10-22T09:54:40.289Z,97830.23
2022-10-22T09:57:17.871Z,97831.48
2022-10-22T09:59:50.563Z,97827.27
2022-10-22T10:02:38.393Z,97826.39
2022-10-22T10:05:08.339Z,97818.59
2022-10-22T10:07:36.948Z,97817.90
2022-10-22T10:10:19.940Z,97819.17
2022-10-22T10:12:48.371Z,97819.92
2022-10-22T10:15:34.254Z,97818.15
2022-10-22T10:18:14.857Z,97818.05
2022-10-22T10:21:01.918Z,97813.39
2022-10-22T10:23:33.382Z,97811.84
2022-10-22T10:26:14.814Z,97808.13
2022-10-22T10:29:06.235Z,97805.73
2022-10-22T10:32:03.653Z,97802.46
2022-10-22T10:34:49.268Z,97803.78
2022-10-22T10:37:31.271Z,97806.05
2022-10-22T10:40:14.838Z,97813.56
2022-10-22T10:42:55.998Z,97811.30
2022-10-22T10:45:54.857Z,97808.85
2022-10-22T10:49:02.949Z,97807.16
2022-10-22T10:52:08.550Z,97800.21
2022-10-22T10:55:19.026Z,97798.35
2022-10-22T10:58:01.182Z,97799.04
2022-10-22T11:00:35.604Z,97794.23
2022-10-22T11:03:17.437Z,97788.33
2022-10-22T11:06:09.516Z,97787.75
2022-10-22T11:08:43.744Z,97784.12
2022-10-22T11:11:19.671Z,97780.33
2022-10-22T11:14:20.429Z,97780.82
2022-10-22T11:16:59.334Z,97775.24
2022-10-22T11:19:59.814Z,97768.01
2022-10-22T11:23:17.505Z,97763.65
2022-10-22T11:25:49.026Z,97764.52
2022-10-22T11:28:37.706Z,97768.49
2022-10-22T11:31:16.988Z,97767.39
2022-10-22T11:34:32.841Z,97763.31
2022-10-22T11:37:01.250Z,97760.63
2022-10-22T11:39:34.696Z,97761.60
2022-10-22T11:42:06.468Z,97758.55
2022-10-22T11:44:50.012Z,97753.77
2022-10-22T11:47:24.800Z,97752.55
2022-10-22T11:50:18.420Z,97754.40
2022-10-22T11:53:08.763Z,97746.64
2022-10-22T11:55:52.871Z,97739.58
2022-10-22T11:58:50.847Z,97744.52
2022-10-22T12:01:26.055Z,97744.29
2022-10-22T12:04:14.434Z,97741.64
2022-10-22T12:07:31.577Z,97744.04
2022-10-22T12:10:00.558Z,97745.94
2022-10-22T12:12:40.035Z,97746.61
2022-10-22T12:15:29.282Z,97743.81
2022-10-22T12:18:04.724Z,97742.88
2022-10-22T12:20:33.314Z,97742.39
2022-10-22T12:23:01.957Z,97737.62
2022-10-22T12:25:35.774Z,97736.55
2022-10-22T12:28:04.625Z,97734.83
2022-10-22T12:30:35.267Z,97736.85
2022-10-22T12:33:08.053Z,97737.86
2022-10-22T12:35:44.347Z,97732.77
2022-10-22T12:38:20.386Z,97734.49
2022-10-22T12:40:50.354Z,97733.77
2022-10-22T12:43:24.222Z,97732.80
2022-10-22T12:45:53.740Z,97729.85
2022-10-22T12:48:29.934Z,97727.14
2022-10-22T12:51:01.393Z,97721.30
2022-10-22T12:53:31.178Z,97719.90
2022-10-22T12:56:06.307Z,97717.75
2022-10-22T12:58:39.643Z,97715.30
2022-10-22T13:01:10.762Z,97720.83
2022-10-22T13:03:49.970Z,97719.55
2022-10-22T13:06:21.810Z,97716.77
2022-10-22T13:09:08.599Z,97710.38
2022-10-22T13:11:48.669Z,97704.89
2022-10-22T13:14:30.211Z,97692.26
2022-10-22T13:17:16.888Z,97698.17
2022-10-22T13:19:48.260Z,97697.14
2022-10-22T13:22:31.112Z,97698.36
2022-10-22T13:25:32.015Z,97701.48
2022-10-22T13:28:13.191Z,97704.78
2022-10-22T13:30:56.279Z,97700.76
2022-10-22T13:33:29.550Z,97698.15
2022-10-22T13:35:57.795Z,97694.50
2022-10-22T13:38:28.246Z,97688.27
2022-10-22T13:40:57.740Z,97680.18
2022-10-22T13:43:26.843Z,97677.50
2022-10-22T13:45:59.020Z,97680.27
2022-10-22T13:48:30.253Z,97676.34
2022-10-22T13:50:58.546Z,97677.55
2022-10-22T13:53:29.189Z,97678.48
2022-10-22T13:55:58.441Z,97677.45
2022-10-22T13:58:26.778Z,97669.55
2022-10-22T14:00:59.217Z,97671.51
2022-10-22T14:03:34.453Z,97670.98
2022-10-22T14:06:02.958Z,97668.36
2022-10-22T14:08:32.113Z,97665.84
2022-10-22T14:11:00.465Z,97670.53
2022-10-22T14:13:28.723Z,97663.80
2022-10-22T14:15:56.975Z,97668.67
2022-10-22T14:18:31.749Z,97666.73
2022-10-22T14:21:05.345Z,97666.89
2022-10-22T14:23:36.621Z,97663.51
2022-10-22T14:26:05.097Z,97658.54
2022-10-22T14:28:41.270Z,97656.17
2022-10-22T14:31:15.448Z,97655.57
2022-10-22T14:33:43.637Z,97648.14
2022-10-22T14:36:15.182Z,97644.44
2022-10-22T14:38:44.892Z,97640.67
2022-10-22T14:41:25.172Z,97640.45
2022-10-22T14:43:55.050Z,97642.71
2022-10-22T14:46:23.271Z,97642.14
2022-10-22T14:48:51.612Z,97644.39
2022-10-22T14:51:23.565Z,97644.86
2022-10-22T14:53:52.372Z,97643.04
2022-10-22T14:56:23.513Z,97635.91
2022-10-22T14:58:52.424Z,97635.48
2022-10-22T15:01:21.165Z,97634.08
2022-10-22T15:03:49.434Z,97635.27
2022-10-22T15:06:17.949Z,97636.30
2022-10-22T15:08:46.450Z,97636.08
2022-10-22T15:11:14.806Z,97636.92
2022-10-22T15:13:43.770Z,97634.94
2022-10-22T15:16:15.059Z,97632.06
2022-10-22T15:18:43.380Z,97630.10
2022-10-22T15:21:18.022Z,97630.97
2022-10-22T15:23:46.345Z,97628.49
2022-10-22T15:26:15.229Z,97633.44
2022-10-22T15:28:44.481Z,97632.73
2022-10-22T15:31:14.559Z,97628.48
2022-10-22T15:33:43.862Z,97624.54
2022-10-22T15:36:14.812Z,97626.45
2022-10-22T15:38:43.803Z,97632.92
2022-10-22T15:41:13.737Z,97631.84
2022-10-22T15:43:42.224Z,97629.50
2022-10-22T15:46:15.343Z,97626.77
2022-10-22T15:48:43.934Z,97636.27
2022-10-22T15:51:17.346Z,97637.81
2022-10-22T15:53:57.589Z,97631.61
2022-10-22T15:56:28.302Z,97637.01
2022-10-22T15:58:58.965Z,97638.02
2022-10-22T16:01:28.465Z,97628.83
2022-10-22T16:04:03.020Z,97628.03
2022-10-22T16:06:36.492Z,97636.21
2022-10-22T16:09:08.813Z,97638.23
2022-10-22T16:11:38.393Z,97627.39
2022-10-22T16:14:07.929Z,97620.34
2022-10-22T16:16:39.589Z,97622.97
2022-10-22T16:19:08.151Z,97624.98
2022-10-22T16:21:36.553Z,97624.59
2022-10-22T16:24:06.621Z,97625.95
2022-10-22T16:26:36.013Z,97628.65
2022-10-22T16:29:05.790Z,97629.43
2022-10-22T16:31:34.537Z,97636.23
2022-10-22T16:34:03.117Z,97633.02
2022-10-22T16:36:31.511Z,97633.28
2022-10-22T16:39:00.327Z,97634.29
2022-10-22T16:41:35.549Z,97633.68
2022-10-22T16:44:05.879Z,97627.97
2022-10-22T16:46:36.968Z,97619.45
2022-10-22T16:49:06.665Z,97615.23
2022-10-22T16:51:35.621Z,97622.09
2022-10-22T16:54:06.807Z,97624.16
2022-10-22T16:56:37.880Z,97622.52
2022-10-22T16:59:06.797Z,97620.14
2022-10-22T17:01:40.346Z,97619.67
2022-10-22T17:04:10.136Z,97618.66
2022-10-22T17:06:38.439Z,97619.94
2022-10-22T17:09:06.689Z,97620.13
2022-10-22T17:11:37.088Z,97620.07
2022-10-22T17:14:07.975Z,97619.99
2022-10-22T17:16:36.473Z,97623.98
2022-10-22T17:19:04.700Z,97631.42
2022-10-22T17:21:34.223Z,97626.33
2022-10-22T17:24:02.692Z,97621.48
2022-10-22T17:26:33.546Z,97624.09
2022-10-22T17:29:01.922Z,97626.52
2022-10-22T17:31:33.373Z,97625.77
2022-10-22T17:34:02.049Z,97636.92
2022-10-22T17:36:34.849Z,97640.13
2022-10-22T17:39:07.789Z,97639.45
2022-10-22T17:41:37.862Z,97637.06
2022-10-22T17:44:09.355Z,97633.21
2022-10-22T17:46:38.607Z,97628.07
2022-10-22T17:49:17.590Z,97629.96
2022-10-22T17:51:46.390Z,97627.94
2022-10-22T17:54:14.759Z,97625.98
2022-10-22T17:56:43.129Z,97626.96
2022-10-22T17:59:14.212Z,97624.66
2022-10-22T18:01:48.004Z,97619.86
2022-10-22T18:04:18.889Z,97614.58
2022-10-22T18:06:48.580Z,97609.42
2022-10-22T18:09:19.206Z,97604.42
2022-10-22T18:11:50.213Z,97599.44
2022-10-22T18:14:20.591Z,97594.27
2022-10-22T18:16:49.610Z,97595.06
2022-10-22T18:19:22.362Z,97598.06
2022-10-22T18:21:50.920Z,97598.14
2022-10-22T18:24:18.970Z,97596.17
2022-10-22T18:26:47.092Z,97593.79
2022-10-22T18:29:18.345Z,97590.19
2022-10-22T18:31:48.035Z,97581.67
2022-10-22T18:34:19.013Z,97570.66
2022-10-22T18:36:49.800Z,97565.60
2022-10-22T18:39:18.227Z,97566.23
2022-10-22T18:41:46.537Z,97561.70
2022-10-22T18:44:15.973Z,97569.76
2022-10-22T18:46:44.292Z,97571.13
2022-10-22T18:49:18.194Z,97573.02
2022-10-22T18:51:52.731Z,97574.77
2022-10-22T18:54:23.800Z,97570.58
2022-10-22T18:56:56.323Z,97568.00
2022-10-22T18:59:27.474Z,97570.77
2022-10-22T19:02:00.144Z,97583.59
2022-10-22T19:04:33.728Z,97586.60
2022-10-22T19:07:01.831Z,97584.23
2022-10-22T19:09:30.647Z,97584.82
2022-10-22T19:11:59.836Z,97582.48
2022-10-22T19:14:27.935Z,97581.14
2022-10-22T19:16:56.286Z,97582.54
2022-10-22T19:19:24.633Z,97585.45
2022-10-22T19:21:52.810Z,97583.40
2022-10-22T19:24:21.234Z,97578.17
2022-10-22T19:26:50.426Z,97571.69
2022-10-22T19:29:20.639Z,97575.84
2022-10-22T19:31:51.283Z,97582.73
2022-10-22T19:34:20.639Z,97587.31
2022-10-22T19:36:51.899Z,97592.00
2022-10-22T19:39:20.428Z,97599.06
2022-10-22T19:41:49.208Z,97602.91
2022-10-22T19:44:17.625Z,97587.14
2022-10-22T19:46:45.807Z,97579.70
2022-10-22T19:49:17.653Z,97572.73
2022-10-22T19:51:49.237Z,97572.18
2022-10-22T19:54:20.851Z,97584.09
2022-10-22T19:56:50.056Z,97590.63
2022-10-22T19:59:22.827Z,97593.70
2022-10-22T20:01:51.101Z,97592.32
2022-10-22T20:04:19.587Z,97590.98
2022-10-22T20:06:47.810Z,97592.46
2022-10-22T20:09:16.067Z,97596.57
2022-10-22T20:11:44.667Z,97598.16
2022-10-22T20:14:13.970Z,97593.98
2022-10-22T20:16:42.612Z,97593.48
2022-10-22T20:19:10.956Z,97589.93
2022-10-22T20:21:39.633Z,97591.55
2022-10-22T20:24:08.087Z,97588.77
2022-10-22T20:26:36.226Z,97588.84
2022-10-22T20:29:04.495Z,97591.60
2022-10-22T20:31:33.445Z,97594.23
2022-10-22T20:34:02.994Z,97595.15
2022-10-22T20:36:32.495Z,97601.34
2022-10-22T20:39:06.439Z,97607.52
2022-10-22T20:41:38.362Z,97606.10
2022-10-22T20:44:17.279Z,97603.14
2022-10-22T20:46:45.997Z,97602.70
2022-10-22T20:49:17.017Z,97597.30
2022-10-22T20:51:45.402Z,97590.38
2022-10-22T20:54:15.287Z,97590.48
2022-10-22T20:56:44.262Z,97597.42
2022-10-22T20:59:12.951Z,97596.23
2022-10-22T21:01:46.686Z,97593.29
2022-10-22T21:04:17.200Z,97595.37
2022-10-22T21:06:45.948Z,97602.09
2022-10-22T21:09:14.890Z,97608.90
2022-10-22T21:11:43.923Z,97610.19
2022-10-22T21:14:14.296Z,97610.84
2022-10-22T21:16:51.476Z,97612.16
2022-10-22T21:19:20.522Z,97607.77
2022-10-22T21:21:49.723Z,97601.60
2022-10-22T21:24:18.313Z,97602.59
2022-10-22T21:26:46.628Z,97604.95
2022-10-22T21:29:14.527Z,97601.52
2022-10-22T21:31:43.468Z,97602.08
2022-10-22T21:34:13.501Z,97602.99
2022-10-22T21:36:42.681Z,97607.33
2022-10-22T21:39:12.393Z,97610.59
2022-10-22T21:41:41.169Z,97610.36
2022-10-22T21:44:09.702Z,97614.36
2022-10-22T21:46:38.119Z,97619.40
2022-10-22T21:49:06.140Z,97616.11
2022-10-22T21:51:35.947Z,97616.05
2022-10-22T21:54:04.944Z,97615.58
2022-10-22T21:56:35.771Z,97614.46
2022-10-22T21:59:05.133Z,97617.08
2022-10-22T22:01:33.485Z,97617.77
2022-10-22T22:04:01.713Z,97616.71
2022-10-22T22:06:33.507Z,97619.30
2022-10-22T22:09:03.730Z,97625.59
2022-10-22T22:11:32.792Z,97628.89
2022-10-22T22:14:00.838Z,97625.82
2022-10-22T22:16:32.483Z,97629.52
2022-10-22T22:21:42.083Z,97624.60
2022-10-22T22:24:13.004Z,97626.11
2022-10-22T22:26:41.263Z,97623.83
2022-10-22T22:29:10.555Z,97622.10
2022-10-22T22:31:38.776Z,97625.77
2022-10-22T22:34:11.274Z,97632.78
2022-10-22T22:36:41.733Z,97639.13
2022-10-22T22:39:18.917Z,97644.06
2022-10-22T22:41:48.251Z,97650.14
2022-10-22T22:44:17.373Z,97655.17
2022-10-22T22:46:45.629Z,97656.44
2022-10-22T22:49:14.416Z,97655.64
2022-10-22T22:51:43.832Z,97655.73
2022-10-22T22:54:11.917Z,97655.02
2022-10-22T22:56:40.013Z,97649.81
2022-10-22T22:59:08.209Z,97656.92
2022-10-22T23:01:38.732Z,97656.56
2022-10-22T23:04:08.289Z,97657.11
2022-10-22T23:06:37.899Z,97653.16
2022-10-22T23:09:09.571Z,97654.98
2022-10-22T23:11:38.720Z,97656.30
2022-10-22T23:14:08.648Z,97660.59
2022-10-22T23:16:39.830Z,97667.33
2022-10-22T23:19:08.082Z,97673.13
2022-10-22T23:21:39.544Z,97676.96
2022-10-22T23:24:11.903Z,97681.19
2022-10-22T23:26:43.292Z,97681.31
2022-10-22T23:29:14.998Z,97682.17
2022-10-22T23:31:44.294Z,97680.46
2022-10-22T23:34:16.487Z,97683.77
2022-10-22T23:36:44.710Z,97693.84
2022-10-22T23:39:19.255Z,97699.02
2022-10-22T23:41:47.798Z,97701.09
2022-10-22T23:44:16.209Z,97700.11
2022-10-22T23:46:44.674Z,97701.59
2022-10-22T23:49:13.584Z,97706.64
2022-10-22T23:51:42.275Z,97706.93
2022-10-22T23:54:18.301Z,97709.36
2022-10-22T23:56:47.401Z,97711.43
2022-10-22T23:59:15.980Z,97715.34
